Vårt webkamera more information My webcam


webkamera på Randaberg more information webcam on Randaberg


Nedbørsradar  rain snow radar


Besøk vår andre værside:

Alternativ webside

Alternativ mobil

Regnskvett RandabergWebsite of another weatherstation



Ikke nødvendig med spesiell oppmerksomhet.    Det er ingen advarsler

Select another period ( hide this area )

enheter Periode Custom range Directly to
Metric Engelsk Begge
Daglig Weekly Månedlig Årlig
use both date-selectors for a custom range
previous Dag
With this date

WeatherUnderground graphs for this period ( click here )


Daglig sammendrag for Tirsdag 16 Juli 2019
Tid Temp. ( °C ) Dew pt. ( °C ) Vind ( km/h ) fra Vindkast ( km/h ) Trykk ( hPa ) Humid.( % ) Rainrate ( cm )
Max22,6 15,5 13,7 VEST ( 208/1081 ) 19,1 1013,4 95 -
Snitt17,1 13,4 4,9 Stille #40/222 7,7 1012,9 80 -
Min12,3 11,3 -   0,0 1011,7 62 -
Daglig Tabular details for Tirsdag 16 Juli 2019
Tid Temp. ( °C ) Dew pt. ( °C ) Vind ( km/h ) fra Vindkast ( km/h ) Trykk ( hPa ) Humid.( % ) Rainrate ( cm )
00:04 15,1 12,6 8,2 NV 9,3 1012,8 85 -
00:09 15,0 12,7 4,0 NNØ 6,9 1012,4 86 -
00:14 14,9 12,6 5,0 NNV 5,0 1012,4 86 -
00:19 14,8 12,5 8,7 NNV 10,1 1012,4 86 -
00:24 14,8 12,3 4,7 NNØ 5,0 1012,8 85 -
00:29 14,8 12,3 12,2 ØNØ 13,7 1012,8 85 -
00:34 14,7 12,0 7,6 NNØ 9,3 1012,8 84 -
00:39 14,4 11,9 9,3 ØNØ 19,1 1012,8 85 -
00:44 14,7 12,0 6,4 ØNØ 13,7 1012,8 84 -
00:49 14,4 11,7 8,2 Øst 8,2 1012,8 84 -
00:54 13,9 11,6 8,7 ØNØ 12,2 1012,8 86 -
00:59 14,0 12,2 7,6 ØSØ 11,9 1012,8 89 -
01:04 14,2 12,4 7,6 ØSØ 15,4 1012,8 89 -
01:09 14,2 12,4 8,7 Øst 11,1 1012,8 89 -
01:14 14,3 12,5 7,6 Øst 11,1 1012,8 89 -
01:19 14,3 12,3 9,3 Øst 10,1 1012,8 88 -
01:24 14,2 12,4 13,7 Øst 14,0 1012,8 89 -
01:29 14,1 12,3 11,1 Øst 13,0 1012,8 89 -
01:34 14,1 12,3 4,7 SSØ 10,1 1012,8 89 -
01:39 14,1 12,3 4,0 10,5 1012,8 89 -
01:44 14,1 12,3 5,8 ØSØ 8,7 1012,8 89 -
01:49 14,0 12,2 9,3 Øst 12,2 1012,8 89 -
01:54 13,9 12,1 4,0 Øst 11,9 1012,8 89 -
01:59 13,8 12,0 9,3 Øst 14,0 1012,8 89 -
02:04 13,6 12,0 12,2 ØNØ 14,8 1012,8 90 -
02:09 13,4 11,8 2,9 Øst 12,2 1013,1 90 -
02:14 13,6 12,2 6,9 7,6 1013,1 91 -
02:19 13,7 12,3 10,1 ØNØ 10,1 1013,1 91 -
02:24 13,6 12,2 4,7 Øst 8,2 1013,1 91 -
02:29 13,6 12,2 6,4 ØNØ 8,7 1013,1 91 -
02:34 13,5 12,1 7,6 ØNØ 10,1 1013,1 91 -
02:39 13,3 11,9 6,4 ØSØ 10,1 1013,4 91 -
02:43 13,2 11,8 6,4 Øst 6,9 1013,4 91 -
02:49 13,3 12,0 2,9 ØSØ 8,7 1013,4 92 -
02:54 13,2 11,9 10,1 ØNØ 10,1 1013,4 92 -
02:59 13,2 11,9   Stille 8,7 1013,4 92 -
03:04 13,2 11,9 4,7 VEST 5,8 1013,4 92 -
03:09 13,2 12,1 2,9 Øst 5,0 1013,4 93 -
03:14 13,2 11,9 4,0 Øst 7,6 1013,4 92 -
03:19 13,1 11,8 3,2 ØNØ 6,4 1013,4 92 -
03:24 13,2 12,1 6,4 9,3 1013,4 93 -
03:29 13,1 11,8 2,9 5,0 1013,4 92 -
03:34 13,1 11,8 4,7 4,7 1013,4 92 -
03:39 13,0 11,7 3,2 ØNØ 4,0 1013,4 92 -
03:44 12,9 11,8 3,2 SSØ 5,8 1013,4 93 -
03:49 13,0 11,9 5,8 SV 7,6 1013,4 93 -
03:54 13,0 11,9   Stille 6,4 1013,4 93 -
03:59 13,1 12,0   Stille 4,0 1013,4 93 -
04:04 13,0 11,7   Stille   1013,4 92 -
04:09 12,9 11,8   Stille   1013,4 93 -
04:14 12,8 11,7   Stille   1013,4 93 -
04:19 12,6 11,5   Stille   1013,4 93 -
04:24 12,4 11,3 5,8 Øst 6,9 1013,4 93 -
04:29 12,3 11,4 5,8 ØNØ 9,3 1013,4 94 -
04:34 12,3 11,4 2,9 4,7 1013,4 94 -
04:39 12,3 11,5   Stille   1013,4 95 -
04:44 12,4 11,6   Stille   1013,4 95 -
04:49 12,4 11,6   Stille   1013,4 95 -
04:54 12,4 11,6   Stille   1013,1 95 -
04:59 12,4 11,6   Stille 2,9 1013,1 95 -
05:04 12,5 11,7   Stille   1013,1 95 -
05:09 12,6 11,8   Stille 2,9 1013,1 95 -
05:14 12,6 11,8   Stille 2,9 1013,1 95 -
05:19 12,6 11,8 3,2 3,2 1013,1 95 -
05:24 12,6 11,8   Stille   1013,4 95 -
05:29 12,7 11,9   Stille   1013,4 95 -
05:34 12,7 11,9   Stille   1013,4 95 -
05:39 12,7 11,9   Stille 3,2 1013,4 95 -
05:44 12,7 11,9 2,9 4,0 1013,4 95 -
05:49 12,7 11,9   Stille 4,7 1013,4 95 -
05:54 12,7 11,9   Stille 2,1 1013,4 95 -
05:59 12,7 11,9 2,9 3,2 1013,4 95 -
06:04 12,7 11,9 3,2 4,0 1013,4 95 -
06:09 12,8 12,0   Stille   1013,4 95 -
06:14 12,8 12,0   Stille 2,1 1013,4 95 -
06:19 12,8 12,0   Stille   1013,4 95 -
06:24 12,9 12,1   Stille   1013,4 95 -
06:29 13,0 12,2   Stille 2,9 1013,4 95 -
06:34 13,0 12,2   Stille   1013,4 95 -
06:38 13,1 12,3   Stille   1013,4 95 -
06:44 13,2 12,4   Stille   1013,4 95 -
06:49 13,3 12,5   Stille   1013,4 95 -
06:54 13,4 12,6   Stille   1013,4 95 -
06:59 13,4 12,5   Stille   1013,4 94 -
07:04 13,4 12,5   Stille   1013,4 94 -
07:09 13,7 12,8   Stille   1013,4 94 -
07:14 13,7 12,6   Stille   1013,4 93 -
07:19 13,7 12,6   Stille   1013,4 93 -
07:24 13,8 12,7   Stille   1013,4 93 -
07:29 13,8 12,7   Stille   1013,4 93 -
07:34 13,9 12,6   Stille   1013,4 92 -
07:39 13,9 12,6   Stille   1013,4 92 -
07:44 14,2 13,1 2,1 VNV 2,1 1013,4 93 -
07:49 14,4 13,1 2,9 VNV 4,0 1013,4 92 -
07:54 14,8 13,3 3,2 VEST 4,7 1013,4 91 -
07:59 15,1 13,3 5,8 VNV 7,6 1013,4 89 -
08:04 15,2 13,4 5,0 VNV 5,0 1013,4 89 -
08:09 15,4 13,2 4,7 VNV 6,4 1013,4 87 -
08:14 15,7 13,4 4,7 VEST 6,4 1013,4 86 -
08:19 15,8 13,3 2,9 SV 5,8 1013,4 85 -
08:24 15,9 13,4 4,0 VEST 4,0 1013,4 85 -
08:29 16,2 13,3 4,7 VNV 8,2 1013,4 83 -
08:34 16,2 13,3 2,9 VEST 5,8 1013,4 83 -
08:39 16,3 13,2 3,2 SV 6,4 1013,1 82 -
08:44 16,2 13,1 5,8 VSV 8,2 1013,1 82 -
08:49 16,3 13,6 4,0 VEST 4,7 1013,1 84 -
08:54 16,6 13,5 3,2 SSV 4,0 1013,1 82 -
08:59 16,7 13,4 4,0 VEST 5,0 1013,1 81 -
09:04 16,8 13,3 3,2 VEST 5,0 1013,1 80 -
09:09 16,9 13,6 5,0 SV 5,8 1013,1 81 -
09:14 17,0 13,7 3,2 VSV 4,7 1013,1 81 -
09:19 17,2 13,5 5,0 SV 5,8 1013,1 79 -
09:24 17,1 13,6 4,0 VSV 6,9 1013,1 80 -
09:29 17,3 13,4 5,8 VSV 8,2 1013,1 78 -
09:34 17,6 13,5 4,0 VEST 7,6 1013,1 77 -
09:39 17,8 13,5 3,2 VSV 6,4 1013,1 76 -
09:44 17,9 13,4 6,9 VEST 7,6 1013,1 75 -
09:49 17,9 13,4 5,8 SV 7,6 1013,1 75 -
09:54 17,8 13,3 6,4 VEST 7,6 1013,1 75 -
09:59 17,6 13,1 10,1 SV 11,1 1013,1 75 -
10:04 17,4 13,1 4,7 SV 8,2 1013,1 76 -
10:09 17,5 13,2 4,0 SV 6,9 1013,1 76 -
10:14 17,7 13,0 6,4 VNV 9,3 1013,1 74 -
10:19 18,1 13,6 3,2 VSV 7,6 1013,1 75 -
10:24 18,5 14,0 5,0 Sør 6,4 1013,1 75 -
10:29 18,8 14,1 4,7 VEST 8,2 1013,1 74 -
10:34 18,6 13,7 4,0 VSV 12,2 1013,1 73 -
10:39 18,1 13,6 5,0 SSV 11,1 1012,8 75 -
10:44 17,9 13,8 7,6 VEST 11,9 1012,8 77 -
10:49 17,8 13,7 5,0 SV 8,2 1012,8 77 -
10:54 18,0 13,7 4,0 VEST 10,5 1012,8 76 -
10:59 17,9 13,6 6,9 SV 10,1 1012,8 76 -
11:04 17,9 13,6 5,0 VEST 9,3 1012,8 76 -
11:09 18,1 13,6 9,3 SV 13,0 1012,8 75 -
11:14 18,0 13,3 11,1 SSV 11,9 1012,8 74 -
11:19 17,7 13,6 5,0 SSV 10,1 1012,8 77 -
11:24 17,8 13,5 11,1 SV 13,0 1012,8 76 -
11:29 17,8 13,3 11,1 SV 11,9 1012,8 75 -
11:34 17,8 13,5 7,6 SV 8,2 1012,8 76 -
11:39 18,2 13,7 4,7 VNV 7,6 1012,8 75 -
11:44 18,6 14,1 5,8 VEST 8,7 1012,8 75 -
11:49 18,8 13,9 4,7 VSV 8,2 1012,8 73 -
11:54 19,1 14,4 4,0 VEST 8,7 1012,8 74 -
11:59 19,4 14,2 6,4 SSV 8,7 1012,8 72 -
12:04 19,6 14,4 6,4 VSV 14,0 1012,8 72 -
12:09 19,4 14,2 5,8 VEST 9,3 1012,8 72 -
12:14 19,3 14,1 4,7 VEST 12,2 1012,8 72 -
12:19 19,3 14,3 6,9 SV 12,2 1012,8 73 -
12:24 19,1 13,9 7,6 SSV 13,7 1012,8 72 -
12:29 18,8 14,1 5,8 VSV 10,5 1012,8 74 -
12:34 19,0 14,3 2,9 VEST 8,7 1012,8 74 -
12:39 19,5 14,5 4,7 SV 8,7 1012,8 73 -
12:44 20,0 14,8 9,3 VEST 12,2 1012,8 72 -
12:49 20,1 15,1 10,1 VEST 10,1 1012,8 73 -
12:54 20,1 14,9 6,4 VNV 13,0 1012,8 72 -
12:59 19,9 14,9 6,9 VNV 10,1 1012,8 73 -
13:03 20,0 15,2 6,4 VNV 13,7 1012,8 74 -
13:09 20,4 15,0 6,9 SV 11,1 1012,8 71 -
13:14 20,5 14,6 8,7 VNV 14,8 1012,8 69 -
13:19 20,6 14,9 8,2 SV 13,7 1012,8 70 -
13:24 20,7 15,0 6,4 VNV 14,8 1012,8 70 -
13:29 21,0 15,1 8,2 SV 10,5 1012,8 69 -
13:34 21,4 15,2 5,8 VEST 12,2 1012,8 68 -
13:39 21,6 15,0 5,8 VEST 12,2 1012,8 66 -
13:44 21,3 14,9 9,3 VNV 9,3 1012,8 67 -
13:49 21,3 15,4 3,2 NNV 11,1 1012,8 69 -
13:54 21,5 15,3 6,4 NNØ 10,1 1012,8 68 -
13:59 21,6 15,2 5,8 VEST 10,5 1012,8 67 -
14:04 21,4 15,2 3,2 SV 14,0 1012,8 68 -
14:09 21,3 15,2 6,9 VEST 11,9 1012,8 68 -
14:14 21,4 15,2 5,0 VEST 9,3 1012,8 68 -
14:19 21,3 15,2 8,7 NV 12,2 1012,8 68 -
14:24 21,2 15,3 5,0 VNV 8,2 1012,4 69 -
14:29 21,3 15,2 10,1 VNV 10,1 1012,4 68 -
14:34 21,5 15,3 6,9 VEST 9,3 1012,4 68 -
14:39 21,7 15,3 10,5 VEST 10,5 1012,4 67 -
14:44 21,7 15,3 10,1 VNV 11,9 1012,4 67 -
14:49 21,5 15,3 6,4 VNV 10,1 1012,4 68 -
14:54 21,4 15,2 4,7 VNV 10,1 1012,4 68 -
14:59 21,5 15,1 5,0 VNV 9,3 1012,4 67 -
15:04 21,5 15,1 6,4 VEST 8,7 1012,4 67 -
15:09 21,4 15,2 6,4 VSV 9,3 1012,1 68 -
15:14 21,3 14,7 5,0 NV 10,1 1012,1 66 -
15:19 21,3 15,2 5,8 SSV 6,9 1012,1 68 -
15:24 21,7 14,8 6,9 VEST 8,2 1012,1 65 -
15:29 21,7 14,6 5,0 SV 9,3 1012,1 64 -
15:34 21,6 14,3 4,0 Sør 6,4 1012,1 63 -
15:39 21,4 14,8 4,0 SSV 5,8 1012,4 66 -
15:44 21,3 14,5 2,9 SSV 7,6 1012,4 65 -
15:49 21,4 14,3 2,9 SSV 6,9 1012,4 64 -
15:54 21,6 14,5 5,0 SSV 5,8 1012,1 64 -
15:59 21,5 14,2 4,7 Øst 6,9 1012,1 63 -
16:04 21,5 14,6 3,2 SSØ 6,4 1012,1 65 -
16:09 21,7 14,8 6,4 SV 8,2 1012,1 65 -
16:14 21,5 14,4 5,0 SV 8,2 1012,1 64 -
16:19 21,5 14,6 6,4 VEST 7,6 1012,1 65 -
16:24 21,9 14,5 5,0 VNV 8,2 1012,1 63 -
16:29 22,1 14,7 3,2 SSV 5,8 1012,1 63 -
16:34 22,0 14,6 5,0 Sør 8,2 1012,1 63 -
16:39 22,1 14,7 6,4 VEST 8,2 1012,1 63 -
16:44 21,9 15,0 5,0 Sør 7,6 1012,1 65 -
16:49 22,2 15,5 8,2 VSV 10,1 1012,1 66 -
16:54 21,9 15,5 6,4 VSV 8,2 1012,1 67 -
16:59 22,1 15,2 8,7 VSV 10,5 1012,1 65 -
17:04 22,1 15,2 4,0 VNV 11,9 1012,1 65 -
17:09 22,1 15,0 5,0 VSV 11,9 1012,1 64 -
17:14 22,1 15,2 4,0 Sør 13,0 1012,1 65 -
17:19 22,2 15,1 11,9 VEST 13,0 1012,1 64 -
17:24 22,3 15,2 9,3 VNV 9,3 1012,1 64 -
17:29 22,4 15,0 4,0 SSV 9,3 1012,1 63 -
17:34 22,5 15,1 5,0 Sør 12,2 1012,1 63 -
17:39 22,4 15,0 4,7 NV 8,7 1011,7 63 -
17:44 22,6 14,9 4,7 VNV 9,3 1011,7 62 -
17:49 22,4 14,8 8,7 VEST 17,2 1011,7 62 -
17:54 22,2 14,8 6,4 SSV 11,1 1012,1 63 -
17:59 22,2 14,8 13,0 VNV 13,0 1012,1 63 -
18:04 22,1 14,7 4,0 SV 13,7 1012,1 63 -
18:09 22,1 15,0 4,7 VSV 10,5 1012,1 64 -
18:14 22,0 14,9 7,6 VNV 8,7 1012,1 64 -
18:19 22,1 15,0 6,9 VNV 8,2 1012,1 64 -
18:24 21,9 15,0 3,2 VSV 8,7 1011,7 65 -
18:29 21,8 14,7 2,9 VEST 8,2 1011,7 64 -
Daglig sammendrag for Tirsdag 16 Juli 2019
Tid Temp. ( °C ) Dew pt. ( °C ) Vind ( km/h ) fra Vindkast ( km/h ) Trykk ( hPa ) Humid.( % ) Rainrate ( cm )
Max22,6 15,5 13,7 VEST ( 208/1081 ) 19,1 1013,4 95 -
Snitt17,1 13,4 4,9 Stille #40/222 7,7 1012,9 80 -
Min12,3 11,3 -   0,0 1011,7 62 -
Daglig Tabular details for Tirsdag 16 Juli 2019
Tid Temp. ( °C ) Dew pt. ( °C ) Vind ( km/h ) fra Vindkast ( km/h ) Trykk ( hPa ) Humid.( % ) Rainrate ( cm )
00:04 15,1 12,6 8,2 NV 9,3 1012,8 85 -
00:09 15,0 12,7 4,0 NNØ 6,9 1012,4 86 -
00:14 14,9 12,6 5,0 NNV 5,0 1012,4 86 -
00:19 14,8 12,5 8,7 NNV 10,1 1012,4 86 -
00:24 14,8 12,3 4,7 NNØ 5,0 1012,8 85 -
00:29 14,8 12,3 12,2 ØNØ 13,7 1012,8 85 -
00:34 14,7 12,0 7,6 NNØ 9,3 1012,8 84 -
00:39 14,4 11,9 9,3 ØNØ 19,1 1012,8 85 -
00:44 14,7 12,0 6,4 ØNØ 13,7 1012,8 84 -
00:49 14,4 11,7 8,2 Øst 8,2 1012,8 84 -
00:54 13,9 11,6 8,7 ØNØ 12,2 1012,8 86 -
00:59 14,0 12,2 7,6 ØSØ 11,9 1012,8 89 -
01:04 14,2 12,4 7,6 ØSØ 15,4 1012,8 89 -
01:09 14,2 12,4 8,7 Øst 11,1 1012,8 89 -
01:14 14,3 12,5 7,6 Øst 11,1 1012,8 89 -
01:19 14,3 12,3 9,3 Øst 10,1 1012,8 88 -
01:24 14,2 12,4 13,7 Øst 14,0 1012,8 89 -
01:29 14,1 12,3 11,1 Øst 13,0 1012,8 89 -
01:34 14,1 12,3 4,7 SSØ 10,1 1012,8 89 -
01:39 14,1 12,3 4,0 10,5 1012,8 89 -
01:44 14,1 12,3 5,8 ØSØ 8,7 1012,8 89 -
01:49 14,0 12,2 9,3 Øst 12,2 1012,8 89 -
01:54 13,9 12,1 4,0 Øst 11,9 1012,8 89 -
01:59 13,8 12,0 9,3 Øst 14,0 1012,8 89 -
02:04 13,6 12,0 12,2 ØNØ 14,8 1012,8 90 -
02:09 13,4 11,8 2,9 Øst 12,2 1013,1 90 -
02:14 13,6 12,2 6,9 7,6 1013,1 91 -
02:19 13,7 12,3 10,1 ØNØ 10,1 1013,1 91 -
02:24 13,6 12,2 4,7 Øst 8,2 1013,1 91 -
02:29 13,6 12,2 6,4 ØNØ 8,7 1013,1 91 -
02:34 13,5 12,1 7,6 ØNØ 10,1 1013,1 91 -
02:39 13,3 11,9 6,4 ØSØ 10,1 1013,4 91 -
02:43 13,2 11,8 6,4 Øst 6,9 1013,4 91 -
02:49 13,3 12,0 2,9 ØSØ 8,7 1013,4 92 -
02:54 13,2 11,9 10,1 ØNØ 10,1 1013,4 92 -
02:59 13,2 11,9   Stille 8,7 1013,4 92 -
03:04 13,2 11,9 4,7 VEST 5,8 1013,4 92 -
03:09 13,2 12,1 2,9 Øst 5,0 1013,4 93 -
03:14 13,2 11,9 4,0 Øst 7,6 1013,4 92 -
03:19 13,1 11,8 3,2 ØNØ 6,4 1013,4 92 -
03:24 13,2 12,1 6,4 9,3 1013,4 93 -
03:29 13,1 11,8 2,9 5,0 1013,4 92 -
03:34 13,1 11,8 4,7 4,7 1013,4 92 -
03:39 13,0 11,7 3,2 ØNØ 4,0 1013,4 92 -
03:44 12,9 11,8 3,2 SSØ 5,8 1013,4 93 -
03:49 13,0 11,9 5,8 SV 7,6 1013,4 93 -
03:54 13,0 11,9   Stille 6,4 1013,4 93 -
03:59 13,1 12,0   Stille 4,0 1013,4 93 -
04:04 13,0 11,7   Stille   1013,4 92 -
04:09 12,9 11,8   Stille   1013,4 93 -
04:14 12,8 11,7   Stille   1013,4 93 -
04:19 12,6 11,5   Stille   1013,4 93 -
04:24 12,4 11,3 5,8 Øst 6,9 1013,4 93 -
04:29 12,3 11,4 5,8 ØNØ 9,3 1013,4 94 -
04:34 12,3 11,4 2,9 4,7 1013,4 94 -
04:39 12,3 11,5   Stille   1013,4 95 -
04:44 12,4 11,6   Stille   1013,4 95 -
04:49 12,4 11,6   Stille   1013,4 95 -
04:54 12,4 11,6   Stille   1013,1 95 -
04:59 12,4 11,6   Stille 2,9 1013,1 95 -
05:04 12,5 11,7   Stille   1013,1 95 -
05:09 12,6 11,8   Stille 2,9 1013,1 95 -
05:14 12,6 11,8   Stille 2,9 1013,1 95 -
05:19 12,6 11,8 3,2 3,2 1013,1 95 -
05:24 12,6 11,8   Stille   1013,4 95 -
05:29 12,7 11,9   Stille   1013,4 95 -
05:34 12,7 11,9   Stille   1013,4 95 -
05:39 12,7 11,9   Stille 3,2 1013,4 95 -
05:44 12,7 11,9 2,9 4,0 1013,4 95 -
05:49 12,7 11,9   Stille 4,7 1013,4 95 -
05:54 12,7 11,9   Stille 2,1 1013,4 95 -
05:59 12,7 11,9 2,9 3,2 1013,4 95 -
06:04 12,7 11,9 3,2 4,0 1013,4 95 -
06:09 12,8 12,0   Stille   1013,4 95 -
06:14 12,8 12,0   Stille 2,1 1013,4 95 -
06:19 12,8 12,0   Stille   1013,4 95 -
06:24 12,9 12,1   Stille   1013,4 95 -
06:29 13,0 12,2   Stille 2,9 1013,4 95 -
06:34 13,0 12,2   Stille   1013,4 95 -
06:38 13,1 12,3   Stille   1013,4 95 -
06:44 13,2 12,4   Stille   1013,4 95 -
06:49 13,3 12,5   Stille   1013,4 95 -
06:54 13,4 12,6   Stille   1013,4 95 -
06:59 13,4 12,5   Stille   1013,4 94 -
07:04 13,4 12,5   Stille   1013,4 94 -
07:09 13,7 12,8   Stille   1013,4 94 -
07:14 13,7 12,6   Stille   1013,4 93 -
07:19 13,7 12,6   Stille   1013,4 93 -
07:24 13,8 12,7   Stille   1013,4 93 -
07:29 13,8 12,7   Stille   1013,4 93 -
07:34 13,9 12,6   Stille   1013,4 92 -
07:39 13,9 12,6   Stille   1013,4 92 -
07:44 14,2 13,1 2,1 VNV 2,1 1013,4 93 -
07:49 14,4 13,1 2,9 VNV 4,0 1013,4 92 -
07:54 14,8 13,3 3,2 VEST 4,7 1013,4 91 -
07:59 15,1 13,3 5,8 VNV 7,6 1013,4 89 -
08:04 15,2 13,4 5,0 VNV 5,0 1013,4 89 -
08:09 15,4 13,2 4,7 VNV 6,4 1013,4 87 -
08:14 15,7 13,4 4,7 VEST 6,4 1013,4 86 -
08:19 15,8 13,3 2,9 SV 5,8 1013,4 85 -
08:24 15,9 13,4 4,0 VEST 4,0 1013,4 85 -
08:29 16,2 13,3 4,7 VNV 8,2 1013,4 83 -
08:34 16,2 13,3 2,9 VEST 5,8 1013,4 83 -
08:39 16,3 13,2 3,2 SV 6,4 1013,1 82 -
08:44 16,2 13,1 5,8 VSV 8,2 1013,1 82 -
08:49 16,3 13,6 4,0 VEST 4,7 1013,1 84 -
08:54 16,6 13,5 3,2 SSV 4,0 1013,1 82 -
08:59 16,7 13,4 4,0 VEST 5,0 1013,1 81 -
09:04 16,8 13,3 3,2 VEST 5,0 1013,1 80 -
09:09 16,9 13,6 5,0 SV 5,8 1013,1 81 -
09:14 17,0 13,7 3,2 VSV 4,7 1013,1 81 -
09:19 17,2 13,5 5,0 SV 5,8 1013,1 79 -
09:24 17,1 13,6 4,0 VSV 6,9 1013,1 80 -
09:29 17,3 13,4 5,8 VSV 8,2 1013,1 78 -
09:34 17,6 13,5 4,0 VEST 7,6 1013,1 77 -
09:39 17,8 13,5 3,2 VSV 6,4 1013,1 76 -
09:44 17,9 13,4 6,9 VEST 7,6 1013,1 75 -
09:49 17,9 13,4 5,8 SV 7,6 1013,1 75 -
09:54 17,8 13,3 6,4 VEST 7,6 1013,1 75 -
09:59 17,6 13,1 10,1 SV 11,1 1013,1 75 -
10:04 17,4 13,1 4,7 SV 8,2 1013,1 76 -
10:09 17,5 13,2 4,0 SV 6,9 1013,1 76 -
10:14 17,7 13,0 6,4 VNV 9,3 1013,1 74 -
10:19 18,1 13,6 3,2 VSV 7,6 1013,1 75 -
10:24 18,5 14,0 5,0 Sør 6,4 1013,1 75 -
10:29 18,8 14,1 4,7 VEST 8,2 1013,1 74 -
10:34 18,6 13,7 4,0 VSV 12,2 1013,1 73 -
10:39 18,1 13,6 5,0 SSV 11,1 1012,8 75 -
10:44 17,9 13,8 7,6 VEST 11,9 1012,8 77 -
10:49 17,8 13,7 5,0 SV 8,2 1012,8 77 -
10:54 18,0 13,7 4,0 VEST 10,5 1012,8 76 -
10:59 17,9 13,6 6,9 SV 10,1 1012,8 76 -
11:04 17,9 13,6 5,0 VEST 9,3 1012,8 76 -
11:09 18,1 13,6 9,3 SV 13,0 1012,8 75 -
11:14 18,0 13,3 11,1 SSV 11,9 1012,8 74 -
11:19 17,7 13,6 5,0 SSV 10,1 1012,8 77 -
11:24 17,8 13,5 11,1 SV 13,0 1012,8 76 -
11:29 17,8 13,3 11,1 SV 11,9 1012,8 75 -
11:34 17,8 13,5 7,6 SV 8,2 1012,8 76 -
11:39 18,2 13,7 4,7 VNV 7,6 1012,8 75 -
11:44 18,6 14,1 5,8 VEST 8,7 1012,8 75 -
11:49 18,8 13,9 4,7 VSV 8,2 1012,8 73 -
11:54 19,1 14,4 4,0 VEST 8,7 1012,8 74 -
11:59 19,4 14,2 6,4 SSV 8,7 1012,8 72 -
12:04 19,6 14,4 6,4 VSV 14,0 1012,8 72 -
12:09 19,4 14,2 5,8 VEST 9,3 1012,8 72 -
12:14 19,3 14,1 4,7 VEST 12,2 1012,8 72 -
12:19 19,3 14,3 6,9 SV 12,2 1012,8 73 -
12:24 19,1 13,9 7,6 SSV 13,7 1012,8 72 -
12:29 18,8 14,1 5,8 VSV 10,5 1012,8 74 -
12:34 19,0 14,3 2,9 VEST 8,7 1012,8 74 -
12:39 19,5 14,5 4,7 SV 8,7 1012,8 73 -
12:44 20,0 14,8 9,3 VEST 12,2 1012,8 72 -
12:49 20,1 15,1 10,1 VEST 10,1 1012,8 73 -
12:54 20,1 14,9 6,4 VNV 13,0 1012,8 72 -
12:59 19,9 14,9 6,9 VNV 10,1 1012,8 73 -
13:03 20,0 15,2 6,4 VNV 13,7 1012,8 74 -
13:09 20,4 15,0 6,9 SV 11,1 1012,8 71 -
13:14 20,5 14,6 8,7 VNV 14,8 1012,8 69 -
13:19 20,6 14,9 8,2 SV 13,7 1012,8 70 -
13:24 20,7 15,0 6,4 VNV 14,8 1012,8 70 -
13:29 21,0 15,1 8,2 SV 10,5 1012,8 69 -
13:34 21,4 15,2 5,8 VEST 12,2 1012,8 68 -
13:39 21,6 15,0 5,8 VEST 12,2 1012,8 66 -
13:44 21,3 14,9 9,3 VNV 9,3 1012,8 67 -
13:49 21,3 15,4 3,2 NNV 11,1 1012,8 69 -
13:54 21,5 15,3 6,4 NNØ 10,1 1012,8 68 -
13:59 21,6 15,2 5,8 VEST 10,5 1012,8 67 -
14:04 21,4 15,2 3,2 SV 14,0 1012,8 68 -
14:09 21,3 15,2 6,9 VEST 11,9 1012,8 68 -
14:14 21,4 15,2 5,0 VEST 9,3 1012,8 68 -
14:19 21,3 15,2 8,7 NV 12,2 1012,8 68 -
14:24 21,2 15,3 5,0 VNV 8,2 1012,4 69 -
14:29 21,3 15,2 10,1 VNV 10,1 1012,4 68 -
14:34 21,5 15,3 6,9 VEST 9,3 1012,4 68 -
14:39 21,7 15,3 10,5 VEST 10,5 1012,4 67 -
14:44 21,7 15,3 10,1 VNV 11,9 1012,4 67 -
14:49 21,5 15,3 6,4 VNV 10,1 1012,4 68 -
14:54 21,4 15,2 4,7 VNV 10,1 1012,4 68 -
14:59 21,5 15,1 5,0 VNV 9,3 1012,4 67 -
15:04 21,5 15,1 6,4 VEST 8,7 1012,4 67 -
15:09 21,4 15,2 6,4 VSV 9,3 1012,1 68 -
15:14 21,3 14,7 5,0 NV 10,1 1012,1 66 -
15:19 21,3 15,2 5,8 SSV 6,9 1012,1 68 -
15:24 21,7 14,8 6,9 VEST 8,2 1012,1 65 -
15:29 21,7 14,6 5,0 SV 9,3 1012,1 64 -
15:34 21,6 14,3 4,0 Sør 6,4 1012,1 63 -
15:39 21,4 14,8 4,0 SSV 5,8 1012,4 66 -
15:44 21,3 14,5 2,9 SSV 7,6 1012,4 65 -
15:49 21,4 14,3 2,9 SSV 6,9 1012,4 64 -
15:54 21,6 14,5 5,0 SSV 5,8 1012,1 64 -
15:59 21,5 14,2 4,7 Øst 6,9 1012,1 63 -
16:04 21,5 14,6 3,2 SSØ 6,4 1012,1 65 -
16:09 21,7 14,8 6,4 SV 8,2 1012,1 65 -
16:14 21,5 14,4 5,0 SV 8,2 1012,1 64 -
16:19 21,5 14,6 6,4 VEST 7,6 1012,1 65 -
16:24 21,9 14,5 5,0 VNV 8,2 1012,1 63 -
16:29 22,1 14,7 3,2 SSV 5,8 1012,1 63 -
16:34 22,0 14,6 5,0 Sør 8,2 1012,1 63 -
16:39 22,1 14,7 6,4 VEST 8,2 1012,1 63 -
16:44 21,9 15,0 5,0 Sør 7,6 1012,1 65 -
16:49 22,2 15,5 8,2 VSV 10,1 1012,1 66 -
16:54 21,9 15,5 6,4 VSV 8,2 1012,1 67 -
16:59 22,1 15,2 8,7 VSV 10,5 1012,1 65 -
17:04 22,1 15,2 4,0 VNV 11,9 1012,1 65 -
17:09 22,1 15,0 5,0 VSV 11,9 1012,1 64 -
17:14 22,1 15,2 4,0 Sør 13,0 1012,1 65 -
17:19 22,2 15,1 11,9 VEST 13,0 1012,1 64 -
17:24 22,3 15,2 9,3 VNV 9,3 1012,1 64 -
17:29 22,4 15,0 4,0 SSV 9,3 1012,1 63 -
17:34 22,5 15,1 5,0 Sør 12,2 1012,1 63 -
17:39 22,4 15,0 4,7 NV 8,7 1011,7 63 -
17:44 22,6 14,9 4,7 VNV 9,3 1011,7 62 -
17:49 22,4 14,8 8,7 VEST 17,2 1011,7 62 -
17:54 22,2 14,8 6,4 SSV 11,1 1012,1 63 -
17:59 22,2 14,8 13,0 VNV 13,0 1012,1 63 -
18:04 22,1 14,7 4,0 SV 13,7 1012,1 63 -
18:09 22,1 15,0 4,7 VSV 10,5 1012,1 64 -
18:14 22,0 14,9 7,6 VNV 8,7 1012,1 64 -
18:19 22,1 15,0 6,9 VNV 8,2 1012,1 64 -
18:24 21,9 15,0 3,2 VSV 8,7 1011,7 65 -
18:29 21,8 14,7 2,9 VEST 8,2 1011,7 64 -

Download your copy of this data-set  here

Our weather-data as stored at Weather Underground. Script utviklet av Jim McMurry. Tilrettelagt for malen av Leuven-Template.eu

Du finner vår vær info også på:

European Weather Network

WeatherCloud

Weather Underground

Citizen Weather Observer Program (CWOP)

Utstyr vi bruker:

Værstsjon
Oregon scientific WMR 300

Værprogram
Meteobridge

Oregon scientific WMR 300

Meteobridge